sensor_id;sensor_type;location;lat;lon;timestamp;P1;durP1;ratioP1;P2;durP2;ratioP2
27728;SDS011;15126;42.186;24.340;2023-08-07T00:00:33;0.70;;;0.70;;
27728;SDS011;15126;42.186;24.340;2023-08-07T00:03:00;2.30;;;1.07;;
27728;SDS011;15126;42.186;24.340;2023-08-07T00:05:29;1.30;;;1.20;;
27728;SDS011;15126;42.186;24.340;2023-08-07T00:07:55;1.57;;;1.40;;
27728;SDS011;15126;42.186;24.340;2023-08-07T00:10:22;1.57;;;0.90;;
27728;SDS011;15126;42.186;24.340;2023-08-07T00:12:49;0.80;;;0.80;;
27728;SDS011;15126;42.186;24.340;2023-08-07T00:15:16;1.90;;;0.90;;
27728;SDS011;15126;42.186;24.340;2023-08-07T00:17:43;2.00;;;0.93;;
27728;SDS011;15126;42.186;24.340;2023-08-07T00:20:10;1.97;;;0.93;;
27728;SDS011;15126;42.186;24.340;2023-08-07T00:22:38;1.33;;;0.67;;
27728;SDS011;15126;42.186;24.340;2023-08-07T00:25:05;3.13;;;1.03;;
27728;SDS011;15126;42.186;24.340;2023-08-07T00:27:32;1.10;;;1.00;;
27728;SDS011;15126;42.186;24.340;2023-08-07T00:29:59;0.90;;;0.90;;
27728;SDS011;15126;42.186;24.340;2023-08-07T00:32:25;1.83;;;0.90;;
27728;SDS011;15126;42.186;24.340;2023-08-07T00:34:52;2.20;;;1.03;;
27728;SDS011;15126;42.186;24.340;2023-08-07T00:37:19;2.30;;;0.83;;
27728;SDS011;15126;42.186;24.340;2023-08-07T00:39:47;0.80;;;0.80;;
27728;SDS011;15126;42.186;24.340;2023-08-07T00:42:14;3.70;;;1.03;;
27728;SDS011;15126;42.186;24.340;2023-08-07T00:44:41;0.87;;;0.87;;
27728;SDS011;15126;42.186;24.340;2023-08-07T00:47:07;3.47;;;1.23;;
27728;SDS011;15126;42.186;24.340;2023-08-07T00:49:34;1.10;;;1.00;;
27728;SDS011;15126;42.186;24.340;2023-08-07T00:52:02;2.67;;;1.20;;
27728;SDS011;15126;42.186;24.340;2023-08-07T00:54:30;0.90;;;0.90;;
27728;SDS011;15126;42.186;24.340;2023-08-07T00:57:00;2.00;;;0.80;;
27728;SDS011;15126;42.186;24.340;2023-08-07T00:59:32;1.20;;;1.20;;
27728;SDS011;15126;42.186;24.340;2023-08-07T01:01:59;1.73;;;1.33;;
27728;SDS011;15126;42.186;24.340;2023-08-07T01:04:26;1.70;;;1.60;;
27728;SDS011;15126;42.186;24.340;2023-08-07T01:06:53;3.83;;;1.90;;
27728;SDS011;15126;42.186;24.340;2023-08-07T01:09:20;2.33;;;1.30;;
27728;SDS011;15126;42.186;24.340;2023-08-07T01:11:48;1.47;;;1.37;;
27728;SDS011;15126;42.186;24.340;2023-08-07T01:14:23;1.30;;;1.17;;
27728;SDS011;15126;42.186;24.340;2023-08-07T01:16:57;1.50;;;1.40;;
27728;SDS011;15126;42.186;24.340;2023-08-07T01:19:29;1.63;;;1.53;;
27728;SDS011;15126;42.186;24.340;2023-08-07T01:22:07;1.40;;;1.30;;
27728;SDS011;15126;42.186;24.340;2023-08-07T01:24:34;1.03;;;1.03;;
27728;SDS011;15126;42.186;24.340;2023-08-07T01:27:03;1.67;;;1.57;;
27728;SDS011;15126;42.186;24.340;2023-08-07T01:29:41;1.70;;;1.60;;
27728;SDS011;15126;42.186;24.340;2023-08-07T01:32:13;1.63;;;1.50;;
27728;SDS011;15126;42.186;24.340;2023-08-07T01:34:44;1.80;;;1.70;;
27728;SDS011;15126;42.186;24.340;2023-08-07T01:37:14;2.00;;;1.90;;
27728;SDS011;15126;42.186;24.340;2023-08-07T01:39:43;2.40;;;2.20;;
27728;SDS011;15126;42.186;24.340;2023-08-07T01:42:12;2.00;;;1.90;;
27728;SDS011;15126;42.186;24.340;2023-08-07T01:44:39;2.20;;;2.10;;
27728;SDS011;15126;42.186;24.340;2023-08-07T01:47:05;6.30;;;2.07;;
27728;SDS011;15126;42.186;24.340;2023-08-07T01:49:32;2.57;;;2.43;;
27728;SDS011;15126;42.186;24.340;2023-08-07T01:51:59;2.17;;;2.07;;
27728;SDS011;15126;42.186;24.340;2023-08-07T01:54:27;3.00;;;2.43;;
27728;SDS011;15126;42.186;24.340;2023-08-07T01:56:54;2.50;;;2.30;;
27728;SDS011;15126;42.186;24.340;2023-08-07T01:59:21;2.93;;;2.47;;
27728;SDS011;15126;42.186;24.340;2023-08-07T02:01:47;2.10;;;1.93;;
27728;SDS011;15126;42.186;24.340;2023-08-07T02:04:14;2.87;;;2.40;;
27728;SDS011;15126;42.186;24.340;2023-08-07T02:06:41;2.70;;;2.50;;
27728;SDS011;15126;42.186;24.340;2023-08-07T02:09:08;2.57;;;2.37;;
27728;SDS011;15126;42.186;24.340;2023-08-07T02:11:36;2.53;;;2.33;;
27728;SDS011;15126;42.186;24.340;2023-08-07T02:14:02;2.80;;;2.23;;
27728;SDS011;15126;42.186;24.340;2023-08-07T02:16:29;2.57;;;2.37;;
27728;SDS011;15126;42.186;24.340;2023-08-07T02:18:56;2.27;;;2.17;;
27728;SDS011;15126;42.186;24.340;2023-08-07T02:21:26;2.73;;;2.30;;
27728;SDS011;15126;42.186;24.340;2023-08-07T02:23:52;3.43;;;2.03;;
27728;SDS011;15126;42.186;24.340;2023-08-07T02:26:19;2.10;;;1.90;;
27728;SDS011;15126;42.186;24.340;2023-08-07T02:28:47;3.77;;;2.47;;
27728;SDS011;15126;42.186;24.340;2023-08-07T02:31:14;2.47;;;2.30;;
27728;SDS011;15126;42.186;24.340;2023-08-07T02:33:41;1.80;;;1.70;;
27728;SDS011;15126;42.186;24.340;2023-08-07T02:36:07;2.23;;;2.13;;
27728;SDS011;15126;42.186;24.340;2023-08-07T02:38:34;1.90;;;1.80;;
27728;SDS011;15126;42.186;24.340;2023-08-07T02:41:01;2.10;;;2.00;;
27728;SDS011;15126;42.186;24.340;2023-08-07T02:43:28;3.10;;;1.87;;
27728;SDS011;15126;42.186;24.340;2023-08-07T02:45:59;2.00;;;1.90;;
27728;SDS011;15126;42.186;24.340;2023-08-07T02:48:26;2.43;;;1.90;;
27728;SDS011;15126;42.186;24.340;2023-08-07T02:50:55;3.50;;;2.10;;
27728;SDS011;15126;42.186;24.340;2023-08-07T02:53:22;2.47;;;2.00;;
27728;SDS011;15126;42.186;24.340;2023-08-07T02:55:49;4.70;;;2.17;;
27728;SDS011;15126;42.186;24.340;2023-08-07T02:58:15;1.93;;;1.83;;
27728;SDS011;15126;42.186;24.340;2023-08-07T03:00:42;1.80;;;1.70;;
27728;SDS011;15126;42.186;24.340;2023-08-07T03:03:10;2.00;;;1.90;;
27728;SDS011;15126;42.186;24.340;2023-08-07T03:05:37;1.83;;;1.73;;
27728;SDS011;15126;42.186;24.340;2023-08-07T03:08:04;2.70;;;2.50;;
27728;SDS011;15126;42.186;24.340;2023-08-07T03:10:31;2.20;;;2.10;;
27728;SDS011;15126;42.186;24.340;2023-08-07T03:13:00;2.27;;;2.07;;
27728;SDS011;15126;42.186;24.340;2023-08-07T03:15:27;2.37;;;2.27;;
27728;SDS011;15126;42.186;24.340;2023-08-07T03:17:56;1.80;;;1.70;;
27728;SDS011;15126;42.186;24.340;2023-08-07T03:20:24;3.40;;;2.10;;
27728;SDS011;15126;42.186;24.340;2023-08-07T03:22:51;2.70;;;2.13;;
27728;SDS011;15126;42.186;24.340;2023-08-07T03:25:18;2.23;;;2.13;;
27728;SDS011;15126;42.186;24.340;2023-08-07T03:27:44;2.53;;;2.10;;
27728;SDS011;15126;42.186;24.340;2023-08-07T03:30:11;2.80;;;1.90;;
27728;SDS011;15126;42.186;24.340;2023-08-07T03:32:38;2.13;;;1.93;;
27728;SDS011;15126;42.186;24.340;2023-08-07T03:35:07;2.43;;;2.23;;
27728;SDS011;15126;42.186;24.340;2023-08-07T03:37:37;2.13;;;2.03;;
27728;SDS011;15126;42.186;24.340;2023-08-07T03:40:04;2.33;;;2.20;;
27728;SDS011;15126;42.186;24.340;2023-08-07T03:42:32;2.13;;;2.03;;
27728;SDS011;15126;42.186;24.340;2023-08-07T03:44:58;1.90;;;1.80;;
27728;SDS011;15126;42.186;24.340;2023-08-07T03:47:25;2.80;;;2.60;;
27728;SDS011;15126;42.186;24.340;2023-08-07T03:49:52;3.63;;;2.90;;
27728;SDS011;15126;42.186;24.340;2023-08-07T03:52:18;2.37;;;2.23;;
27728;SDS011;15126;42.186;24.340;2023-08-07T03:54:47;2.87;;;2.37;;
27728;SDS011;15126;42.186;24.340;2023-08-07T03:57:14;3.90;;;2.67;;
27728;SDS011;15126;42.186;24.340;2023-08-07T03:59:40;2.40;;;2.20;;
27728;SDS011;15126;42.186;24.340;2023-08-07T04:02:07;2.37;;;2.10;;
27728;SDS011;15126;42.186;24.340;2023-08-07T04:04:34;4.53;;;2.27;;
27728;SDS011;15126;42.186;24.340;2023-08-07T04:07:01;2.20;;;2.00;;
27728;SDS011;15126;42.186;24.340;2023-08-07T04:09:28;3.47;;;2.07;;
27728;SDS011;15126;42.186;24.340;2023-08-07T04:11:56;3.00;;;2.13;;
27728;SDS011;15126;42.186;24.340;2023-08-07T04:14:23;2.87;;;1.83;;
27728;SDS011;15126;42.186;24.340;2023-08-07T04:16:49;6.00;;;2.07;;
27728;SDS011;15126;42.186;24.340;2023-08-07T04:19:16;2.00;;;1.80;;
27728;SDS011;15126;42.186;24.340;2023-08-07T04:21:43;2.40;;;1.43;;
27728;SDS011;15126;42.186;24.340;2023-08-07T04:24:10;3.67;;;2.00;;
27728;SDS011;15126;42.186;24.340;2023-08-07T04:26:37;16.20;;;2.37;;
27728;SDS011;15126;42.186;24.340;2023-08-07T04:29:05;2.73;;;1.70;;
27728;SDS011;15126;42.186;24.340;2023-08-07T04:31:32;2.50;;;2.20;;
27728;SDS011;15126;42.186;24.340;2023-08-07T04:33:59;4.80;;;2.10;;
27728;SDS011;15126;42.186;24.340;2023-08-07T04:36:26;2.33;;;2.10;;
27728;SDS011;15126;42.186;24.340;2023-08-07T04:38:52;3.73;;;2.37;;
27728;SDS011;15126;42.186;24.340;2023-08-07T04:41:20;2.03;;;1.87;;
27728;SDS011;15126;42.186;24.340;2023-08-07T04:43:47;5.03;;;2.10;;
27728;SDS011;15126;42.186;24.340;2023-08-07T04:46:15;3.13;;;2.30;;
27728;SDS011;15126;42.186;24.340;2023-08-07T04:48:42;5.10;;;2.63;;
27728;SDS011;15126;42.186;24.340;2023-08-07T04:51:09;3.87;;;2.97;;
27728;SDS011;15126;42.186;24.340;2023-08-07T04:53:36;5.33;;;2.73;;
27728;SDS011;15126;42.186;24.340;2023-08-07T04:56:03;2.80;;;2.60;;
27728;SDS011;15126;42.186;24.340;2023-08-07T04:58:30;2.10;;;2.00;;
27728;SDS011;15126;42.186;24.340;2023-08-07T05:00:58;2.07;;;1.97;;
27728;SDS011;15126;42.186;24.340;2023-08-07T05:03:27;4.53;;;2.60;;
27728;SDS011;15126;42.186;24.340;2023-08-07T05:05:58;2.93;;;2.50;;
27728;SDS011;15126;42.186;24.340;2023-08-07T05:08:25;2.87;;;2.67;;
27728;SDS011;15126;42.186;24.340;2023-08-07T05:10:52;2.53;;;2.33;;
27728;SDS011;15126;42.186;24.340;2023-08-07T05:13:19;2.43;;;2.33;;
27728;SDS011;15126;42.186;24.340;2023-08-07T05:15:46;8.93;;;4.80;;
27728;SDS011;15126;42.186;24.340;2023-08-07T05:18:14;7.00;;;2.93;;
27728;SDS011;15126;42.186;24.340;2023-08-07T05:20:43;3.83;;;2.70;;
27728;SDS011;15126;42.186;24.340;2023-08-07T05:23:10;3.80;;;2.70;;
27728;SDS011;15126;42.186;24.340;2023-08-07T05:25:37;2.70;;;2.50;;
27728;SDS011;15126;42.186;24.340;2023-08-07T05:28:04;2.33;;;2.20;;
27728;SDS011;15126;42.186;24.340;2023-08-07T05:30:33;3.57;;;2.47;;
27728;SDS011;15126;42.186;24.340;2023-08-07T05:32:59;2.83;;;2.43;;
27728;SDS011;15126;42.186;24.340;2023-08-07T05:35:26;6.70;;;2.90;;
27728;SDS011;15126;42.186;24.340;2023-08-07T05:37:55;2.63;;;2.47;;
27728;SDS011;15126;42.186;24.340;2023-08-07T05:40:22;2.67;;;2.40;;
27728;SDS011;15126;42.186;24.340;2023-08-07T05:42:52;3.43;;;2.53;;
27728;SDS011;15126;42.186;24.340;2023-08-07T05:45:19;2.40;;;2.20;;
27728;SDS011;15126;42.186;24.340;2023-08-07T05:47:46;3.20;;;3.00;;
27728;SDS011;15126;42.186;24.340;2023-08-07T05:50:12;2.40;;;2.20;;
27728;SDS011;15126;42.186;24.340;2023-08-07T05:52:39;2.47;;;1.93;;
27728;SDS011;15126;42.186;24.340;2023-08-07T05:55:08;3.13;;;2.93;;
27728;SDS011;15126;42.186;24.340;2023-08-07T05:57:35;3.10;;;2.90;;
27728;SDS011;15126;42.186;24.340;2023-08-07T06:00:02;2.93;;;2.47;;
27728;SDS011;15126;42.186;24.340;2023-08-07T06:02:30;2.20;;;2.10;;
27728;SDS011;15126;42.186;24.340;2023-08-07T06:04:57;2.80;;;2.60;;
27728;SDS011;15126;42.186;24.340;2023-08-07T06:07:24;4.63;;;2.93;;
27728;SDS011;15126;42.186;24.340;2023-08-07T06:09:51;2.50;;;2.40;;
27728;SDS011;15126;42.186;24.340;2023-08-07T06:12:19;2.87;;;2.67;;
27728;SDS011;15126;42.186;24.340;2023-08-07T06:14:45;2.60;;;2.40;;
27728;SDS011;15126;42.186;24.340;2023-08-07T06:17:14;2.40;;;2.30;;
27728;SDS011;15126;42.186;24.340;2023-08-07T06:19:46;1.90;;;1.80;;
27728;SDS011;15126;42.186;24.340;2023-08-07T06:22:13;3.00;;;2.50;;
27728;SDS011;15126;42.186;24.340;2023-08-07T06:24:40;2.50;;;2.30;;
27728;SDS011;15126;42.186;24.340;2023-08-07T06:27:07;3.97;;;2.30;;
27728;SDS011;15126;42.186;24.340;2023-08-07T06:29:35;2.33;;;2.20;;
27728;SDS011;15126;42.186;24.340;2023-08-07T06:32:02;2.30;;;2.20;;
27728;SDS011;15126;42.186;24.340;2023-08-07T06:34:29;2.63;;;2.43;;
27728;SDS011;15126;42.186;24.340;2023-08-07T06:36:56;2.63;;;2.43;;
27728;SDS011;15126;42.186;24.340;2023-08-07T06:39:23;2.73;;;2.53;;
27728;SDS011;15126;42.186;24.340;2023-08-07T06:41:49;2.57;;;2.17;;
27728;SDS011;15126;42.186;24.340;2023-08-07T06:44:16;2.70;;;2.50;;
27728;SDS011;15126;42.186;24.340;2023-08-07T06:46:44;2.70;;;2.50;;
27728;SDS011;15126;42.186;24.340;2023-08-07T06:49:11;4.60;;;2.58;;
27728;SDS011;15126;42.186;24.340;2023-08-07T06:51:40;2.75;;;2.47;;
27728;SDS011;15126;42.186;24.340;2023-08-07T06:54:07;4.32;;;2.97;;
27728;SDS011;15126;42.186;24.340;2023-08-07T06:56:34;2.35;;;2.22;;
27728;SDS011;15126;42.186;24.340;2023-08-07T06:59:02;3.03;;;2.72;;
27728;SDS011;15126;42.186;24.340;2023-08-07T07:01:29;3.38;;;2.22;;
27728;SDS011;15126;42.186;24.340;2023-08-07T07:03:58;3.35;;;2.90;;
27728;SDS011;15126;42.186;24.340;2023-08-07T07:06:25;2.38;;;2.28;;
27728;SDS011;15126;42.186;24.340;2023-08-07T07:08:52;1.92;;;1.80;;
27728;SDS011;15126;42.186;24.340;2023-08-07T07:11:20;2.63;;;2.42;;
27728;SDS011;15126;42.186;24.340;2023-08-07T07:13:49;2.40;;;2.20;;
27728;SDS011;15126;42.186;24.340;2023-08-07T07:16:16;2.25;;;2.15;;
27728;SDS011;15126;42.186;24.340;2023-08-07T07:18:43;2.25;;;2.10;;
27728;SDS011;15126;42.186;24.340;2023-08-07T07:21:11;1.88;;;1.77;;
27728;SDS011;15126;42.186;24.340;2023-08-07T07:23:38;1.85;;;1.75;;
27728;SDS011;15126;42.186;24.340;2023-08-07T07:26:04;2.47;;;2.22;;
27728;SDS011;15126;42.186;24.340;2023-08-07T07:28:31;2.22;;;2.13;;
27728;SDS011;15126;42.186;24.340;2023-08-07T07:30:58;4.30;;;2.15;;
27728;SDS011;15126;42.186;24.340;2023-08-07T07:33:25;2.65;;;1.70;;
27728;SDS011;15126;42.186;24.340;2023-08-07T07:35:53;2.10;;;2.00;;
27728;SDS011;15126;42.186;24.340;2023-08-07T07:38:21;1.98;;;1.60;;
27728;SDS011;15126;42.186;24.340;2023-08-07T07:40:47;2.65;;;1.92;;
27728;SDS011;15126;42.186;24.340;2023-08-07T07:43:21;2.47;;;1.90;;
27728;SDS011;15126;42.186;24.340;2023-08-07T07:45:50;1.85;;;1.70;;
27728;SDS011;15126;42.186;24.340;2023-08-07T07:48:16;1.77;;;1.65;;
27728;SDS011;15126;42.186;24.340;2023-08-07T07:50:43;1.50;;;1.40;;
27728;SDS011;15126;42.186;24.340;2023-08-07T07:53:10;1.20;;;1.10;;
27728;SDS011;15126;42.186;24.340;2023-08-07T07:55:38;2.95;;;1.50;;
27728;SDS011;15126;42.186;24.340;2023-08-07T07:58:05;1.63;;;1.52;;
27728;SDS011;15126;42.186;24.340;2023-08-07T08:00:32;2.55;;;1.60;;
27728;SDS011;15126;42.186;24.340;2023-08-07T08:02:59;5.40;;;1.50;;
27728;SDS011;15126;42.186;24.340;2023-08-07T08:05:26;1.13;;;1.13;;
27728;SDS011;15126;42.186;24.340;2023-08-07T08:07:52;5.20;;;1.85;;
27728;SDS011;15126;42.186;24.340;2023-08-07T08:10:19;1.38;;;1.27;;
27728;SDS011;15126;42.186;24.340;2023-08-07T08:12:48;1.55;;;1.45;;
27728;SDS011;15126;42.186;24.340;2023-08-07T08:15:14;1.92;;;1.83;;
27728;SDS011;15126;42.186;24.340;2023-08-07T08:17:41;1.92;;;1.77;;
27728;SDS011;15126;42.186;24.340;2023-08-07T08:20:08;1.55;;;1.35;;
27728;SDS011;15126;42.186;24.340;2023-08-07T08:22:36;1.20;;;1.20;;
27728;SDS011;15126;42.186;24.340;2023-08-07T08:25:03;1.70;;;1.60;;
27728;SDS011;15126;42.186;24.340;2023-08-07T08:27:32;2.47;;;1.73;;
27728;SDS011;15126;42.186;24.340;2023-08-07T08:30:03;2.10;;;1.90;;
27728;SDS011;15126;42.186;24.340;2023-08-07T08:32:31;2.45;;;1.08;;
27728;SDS011;15126;42.186;24.340;2023-08-07T08:34:58;1.35;;;1.25;;
27728;SDS011;15126;42.186;24.340;2023-08-07T08:37:25;1.58;;;1.38;;
27728;SDS011;15126;42.186;24.340;2023-08-07T08:39:52;1.55;;;1.45;;
27728;SDS011;15126;42.186;24.340;2023-08-07T08:42:19;2.00;;;1.50;;
27728;SDS011;15126;42.186;24.340;2023-08-07T08:44:48;1.63;;;1.40;;
27728;SDS011;15126;42.186;24.340;2023-08-07T08:47:19;2.28;;;1.40;;
27728;SDS011;15126;42.186;24.340;2023-08-07T08:49:48;3.78;;;1.25;;
27728;SDS011;15126;42.186;24.340;2023-08-07T08:52:17;3.00;;;2.13;;
27728;SDS011;15126;42.186;24.340;2023-08-07T08:54:45;1.40;;;1.30;;
27728;SDS011;15126;42.186;24.340;2023-08-07T08:57:13;2.47;;;1.23;;
27728;SDS011;15126;42.186;24.340;2023-08-07T08:59:40;1.92;;;1.60;;
27728;SDS011;15126;42.186;24.340;2023-08-07T09:02:08;1.50;;;1.40;;
27728;SDS011;15126;42.186;24.340;2023-08-07T09:04:37;2.88;;;1.73;;
27728;SDS011;15126;42.186;24.340;2023-08-07T09:07:04;1.30;;;1.20;;
27728;SDS011;15126;42.186;24.340;2023-08-07T09:09:31;1.52;;;1.35;;
27728;SDS011;15126;42.186;24.340;2023-08-07T09:11:58;2.45;;;1.50;;
27728;SDS011;15126;42.186;24.340;2023-08-07T09:14:27;1.60;;;1.50;;
27728;SDS011;15126;42.186;24.340;2023-08-07T09:16:57;5.43;;;2.72;;
27728;SDS011;15126;42.186;24.340;2023-08-07T09:19:27;60.03;;;5.93;;
27728;SDS011;15126;42.186;24.340;2023-08-07T09:21:56;4.47;;;1.60;;
27728;SDS011;15126;42.186;24.340;2023-08-07T09:24:25;1.33;;;1.23;;
27728;SDS011;15126;42.186;24.340;2023-08-07T09:26:52;1.35;;;1.25;;
27728;SDS011;15126;42.186;24.340;2023-08-07T09:29:20;23.13;;;2.28;;
27728;SDS011;15126;42.186;24.340;2023-08-07T09:31:48;4.30;;;1.05;;
27728;SDS011;15126;42.186;24.340;2023-08-07T09:34:15;3.47;;;1.38;;
27728;SDS011;15126;42.186;24.340;2023-08-07T09:36:48;2.25;;;1.23;;
27728;SDS011;15126;42.186;24.340;2023-08-07T09:39:16;1.30;;;1.20;;
27728;SDS011;15126;42.186;24.340;2023-08-07T09:41:50;1.30;;;1.20;;
27728;SDS011;15126;42.186;24.340;2023-08-07T09:44:20;6.03;;;1.50;;
27728;SDS011;15126;42.186;24.340;2023-08-07T09:46:48;2.38;;;1.80;;
27728;SDS011;15126;42.186;24.340;2023-08-07T09:49:17;1.30;;;1.20;;
27728;SDS011;15126;42.186;24.340;2023-08-07T09:51:45;2.20;;;1.63;;
27728;SDS011;15126;42.186;24.340;2023-08-07T09:54:17;5.38;;;1.45;;
27728;SDS011;15126;42.186;24.340;2023-08-07T09:56:43;1.40;;;1.30;;
27728;SDS011;15126;42.186;24.340;2023-08-07T09:59:13;1.75;;;1.33;;
27728;SDS011;15126;42.186;24.340;2023-08-07T10:01:40;2.10;;;1.63;;
27728;SDS011;15126;42.186;24.340;2023-08-07T10:04:09;1.40;;;1.30;;
27728;SDS011;15126;42.186;24.340;2023-08-07T10:06:40;2.33;;;1.02;;
27728;SDS011;15126;42.186;24.340;2023-08-07T10:09:10;2.95;;;1.70;;
27728;SDS011;15126;42.186;24.340;2023-08-07T10:11:39;1.45;;;1.35;;
27728;SDS011;15126;42.186;24.340;2023-08-07T10:14:06;1.70;;;1.55;;
27728;SDS011;15126;42.186;24.340;2023-08-07T10:16:33;1.42;;;1.13;;
27728;SDS011;15126;42.186;24.340;2023-08-07T10:19:04;1.67;;;1.58;;
27728;SDS011;15126;42.186;24.340;2023-08-07T10:21:31;1.80;;;1.45;;
27728;SDS011;15126;42.186;24.340;2023-08-07T10:23:59;1.25;;;1.25;;
27728;SDS011;15126;42.186;24.340;2023-08-07T10:26:29;1.45;;;1.35;;
27728;SDS011;15126;42.186;24.340;2023-08-07T10:28:58;1.20;;;1.10;;
27728;SDS011;15126;42.186;24.340;2023-08-07T10:31:28;2.30;;;1.23;;
27728;SDS011;15126;42.186;24.340;2023-08-07T10:33:56;5.50;;;1.10;;
27728;SDS011;15126;42.186;24.340;2023-08-07T10:36:23;1.45;;;1.17;;
27728;SDS011;15126;42.186;24.340;2023-08-07T10:39:08;1.67;;;1.42;;
27728;SDS011;15126;42.186;24.340;2023-08-07T10:41:38;1.67;;;1.23;;
27728;SDS011;15126;42.186;24.340;2023-08-07T10:44:17;1.67;;;1.58;;
27728;SDS011;15126;42.186;24.340;2023-08-07T10:46:48;2.78;;;1.50;;
27728;SDS011;15126;42.186;24.340;2023-08-07T10:49:32;1.45;;;1.23;;
27728;SDS011;15126;42.186;24.340;2023-08-07T10:52:04;2.00;;;1.90;;
27728;SDS011;15126;42.186;24.340;2023-08-07T10:54:40;1.25;;;1.25;;
27728;SDS011;15126;42.186;24.340;2023-08-07T10:57:17;2.05;;;1.73;;
27728;SDS011;15126;42.186;24.340;2023-08-07T10:59:50;1.35;;;1.00;;
27728;SDS011;15126;42.186;24.340;2023-08-07T11:02:25;3.08;;;1.50;;
27728;SDS011;15126;42.186;24.340;2023-08-07T11:04:54;1.45;;;1.23;;
27728;SDS011;15126;42.186;24.340;2023-08-07T11:07:24;1.30;;;1.30;;
27728;SDS011;15126;42.186;24.340;2023-08-07T11:09:56;1.60;;;1.50;;
27728;SDS011;15126;42.186;24.340;2023-08-07T11:12:31;2.90;;;1.30;;
27728;SDS011;15126;42.186;24.340;2023-08-07T11:14:59;1.58;;;1.48;;
27728;SDS011;15126;42.186;24.340;2023-08-07T11:17:26;1.23;;;1.20;;
27728;SDS011;15126;42.186;24.340;2023-08-07T11:19:56;1.30;;;1.20;;
27728;SDS011;15126;42.186;24.340;2023-08-07T11:22:23;2.40;;;1.17;;
27728;SDS011;15126;42.186;24.340;2023-08-07T11:24:50;1.42;;;1.33;;
27728;SDS011;15126;42.186;24.340;2023-08-07T11:27:17;1.30;;;1.20;;
27728;SDS011;15126;42.186;24.340;2023-08-07T11:29:47;1.50;;;1.40;;
27728;SDS011;15126;42.186;24.340;2023-08-07T11:32:15;4.72;;;1.70;;
27728;SDS011;15126;42.186;24.340;2023-08-07T11:34:46;1.45;;;1.35;;
27728;SDS011;15126;42.186;24.340;2023-08-07T11:37:15;1.50;;;1.40;;
27728;SDS011;15126;42.186;24.340;2023-08-07T11:39:42;1.33;;;1.23;;
27728;SDS011;15126;42.186;24.340;2023-08-07T11:42:09;0.90;;;0.90;;
27728;SDS011;15126;42.186;24.340;2023-08-07T11:44:43;1.60;;;1.30;;
27728;SDS011;15126;42.186;24.340;2023-08-07T11:47:11;1.48;;;1.38;;
27728;SDS011;15126;42.186;24.340;2023-08-07T11:49:43;1.40;;;1.30;;
27728;SDS011;15126;42.186;24.340;2023-08-07T11:52:10;1.65;;;1.10;;
27728;SDS011;15126;42.186;24.340;2023-08-07T11:54:39;1.08;;;0.95;;
27728;SDS011;15126;42.186;24.340;2023-08-07T11:57:14;2.35;;;1.83;;
27728;SDS011;15126;42.186;24.340;2023-08-07T11:59:42;2.25;;;1.30;;
27728;SDS011;15126;42.186;24.340;2023-08-07T12:02:11;2.65;;;1.80;;
27728;SDS011;15126;42.186;24.340;2023-08-07T12:04:41;1.45;;;1.35;;
27728;SDS011;15126;42.186;24.340;2023-08-07T12:07:08;1.70;;;1.60;;
27728;SDS011;15126;42.186;24.340;2023-08-07T12:09:36;3.13;;;1.15;;
27728;SDS011;15126;42.186;24.340;2023-08-07T12:12:06;1.60;;;1.27;;
27728;SDS011;15126;42.186;24.340;2023-08-07T12:14:35;1.52;;;1.42;;
27728;SDS011;15126;42.186;24.340;2023-08-07T12:17:08;1.50;;;1.40;;
27728;SDS011;15126;42.186;24.340;2023-08-07T12:19:38;1.80;;;1.40;;
27728;SDS011;15126;42.186;24.340;2023-08-07T12:22:10;1.38;;;1.27;;
27728;SDS011;15126;42.186;24.340;2023-08-07T12:24:37;2.00;;;1.45;;
27728;SDS011;15126;42.186;24.340;2023-08-07T12:27:13;1.98;;;1.27;;
27728;SDS011;15126;42.186;24.340;2023-08-07T12:29:41;2.72;;;1.25;;
27728;SDS011;15126;42.186;24.340;2023-08-07T12:32:08;1.00;;;0.98;;
27728;SDS011;15126;42.186;24.340;2023-08-07T12:34:35;2.20;;;1.35;;
27728;SDS011;15126;42.186;24.340;2023-08-07T12:37:07;1.83;;;1.73;;
27728;SDS011;15126;42.186;24.340;2023-08-07T12:39:35;2.97;;;1.55;;
27728;SDS011;15126;42.186;24.340;2023-08-07T12:42:04;1.48;;;1.38;;
27728;SDS011;15126;42.186;24.340;2023-08-07T12:44:34;1.30;;;1.20;;
27728;SDS011;15126;42.186;24.340;2023-08-07T12:47:03;1.55;;;1.40;;
27728;SDS011;15126;42.186;24.340;2023-08-07T12:49:33;1.50;;;1.40;;
27728;SDS011;15126;42.186;24.340;2023-08-07T12:51:59;2.38;;;1.27;;
27728;SDS011;15126;42.186;24.340;2023-08-07T12:54:32;1.45;;;1.35;;
27728;SDS011;15126;42.186;24.340;2023-08-07T12:57:01;1.80;;;1.42;;
27728;SDS011;15126;42.186;24.340;2023-08-07T12:59:27;1.27;;;1.17;;
27728;SDS011;15126;42.186;24.340;2023-08-07T13:01:54;1.38;;;1.15;;
27728;SDS011;15126;42.186;24.340;2023-08-07T13:04:21;1.70;;;1.60;;
27728;SDS011;15126;42.186;24.340;2023-08-07T13:06:48;1.98;;;1.63;;
27728;SDS011;15126;42.186;24.340;2023-08-07T13:09:15;1.40;;;1.20;;
27728;SDS011;15126;42.186;24.340;2023-08-07T13:11:46;1.38;;;1.27;;
27728;SDS011;15126;42.186;24.340;2023-08-07T13:14:14;2.03;;;1.35;;
27728;SDS011;15126;42.186;24.340;2023-08-07T13:16:42;1.13;;;1.05;;
27728;SDS011;15126;42.186;24.340;2023-08-07T13:19:09;1.63;;;1.52;;
27728;SDS011;15126;42.186;24.340;2023-08-07T13:21:36;1.27;;;1.17;;
27728;SDS011;15126;42.186;24.340;2023-08-07T13:24:03;2.70;;;1.20;;
27728;SDS011;15126;42.186;24.340;2023-08-07T13:26:36;1.15;;;1.02;;
27728;SDS011;15126;42.186;24.340;2023-08-07T13:29:03;1.88;;;1.35;;
27728;SDS011;15126;42.186;24.340;2023-08-07T13:31:35;1.15;;;1.15;;
27728;SDS011;15126;42.186;24.340;2023-08-07T13:34:02;2.08;;;1.20;;
27728;SDS011;15126;42.186;24.340;2023-08-07T13:36:33;1.65;;;1.00;;
27728;SDS011;15126;42.186;24.340;2023-08-07T13:39:02;1.63;;;1.52;;
27728;SDS011;15126;42.186;24.340;2023-08-07T13:41:31;1.60;;;1.42;;
27728;SDS011;15126;42.186;24.340;2023-08-07T13:44:01;1.52;;;1.42;;
27728;SDS011;15126;42.186;24.340;2023-08-07T13:46:29;1.50;;;1.40;;
27728;SDS011;15126;42.186;24.340;2023-08-07T13:48:59;3.17;;;1.60;;
27728;SDS011;15126;42.186;24.340;2023-08-07T13:51:30;2.13;;;1.15;;
27728;SDS011;15126;42.186;24.340;2023-08-07T13:53:56;1.90;;;1.15;;
27728;SDS011;15126;42.186;24.340;2023-08-07T13:56:25;1.38;;;1.25;;
27728;SDS011;15126;42.186;24.340;2023-08-07T13:58:52;1.35;;;1.20;;
27728;SDS011;15126;42.186;24.340;2023-08-07T14:01:20;1.23;;;1.17;;
27728;SDS011;15126;42.186;24.340;2023-08-07T14:03:47;1.13;;;1.05;;
27728;SDS011;15126;42.186;24.340;2023-08-07T14:06:18;2.47;;;1.40;;
27728;SDS011;15126;42.186;24.340;2023-08-07T14:08:46;1.42;;;1.33;;
27728;SDS011;15126;42.186;24.340;2023-08-07T14:11:13;1.45;;;1.25;;
27728;SDS011;15126;42.186;24.340;2023-08-07T14:13:41;1.50;;;1.08;;
27728;SDS011;15126;42.186;24.340;2023-08-07T14:16:09;1.15;;;1.05;;
27728;SDS011;15126;42.186;24.340;2023-08-07T14:18:38;3.45;;;1.40;;
27728;SDS011;15126;42.186;24.340;2023-08-07T14:21:05;1.88;;;1.73;;
27728;SDS011;15126;42.186;24.340;2023-08-07T14:23:33;1.40;;;1.30;;
27728;SDS011;15126;42.186;24.340;2023-08-07T14:26:01;0.95;;;0.95;;
27728;SDS011;15126;42.186;24.340;2023-08-07T14:28:28;1.55;;;1.38;;
27728;SDS011;15126;42.186;24.340;2023-08-07T14:30:58;1.45;;;1.35;;
27728;SDS011;15126;42.186;24.340;2023-08-07T14:33:25;2.13;;;1.52;;
27728;SDS011;15126;42.186;24.340;2023-08-07T14:35:53;3.80;;;1.30;;
27728;SDS011;15126;42.186;24.340;2023-08-07T14:38:20;1.40;;;1.30;;